sensor_id;sensor_type;location;lat;lon;timestamp;P1;durP1;ratioP1;P2;durP2;ratioP2
8482;SDS011;4278;42.668;23.312;2023-04-21T04:16:23;9.57;;;6.57;;
8482;SDS011;4278;42.668;23.312;2023-04-21T04:18:51;11.33;;;6.97;;
8482;SDS011;4278;42.668;23.312;2023-04-21T04:21:18;11.20;;;7.20;;
8482;SDS011;4278;42.668;23.312;2023-04-21T04:23:44;9.97;;;6.93;;
8482;SDS011;4278;42.668;23.312;2023-04-21T04:26:11;10.63;;;7.20;;
8482;SDS011;4278;42.668;23.312;2023-04-21T04:28:38;9.43;;;6.83;;
8482;SDS011;4278;42.668;23.312;2023-04-21T04:31:05;8.23;;;7.07;;
8482;SDS011;4278;42.668;23.312;2023-04-21T04:33:33;10.97;;;7.63;;
8482;SDS011;4278;42.668;23.312;2023-04-21T04:36:00;7.73;;;6.13;;
8482;SDS011;4278;42.668;23.312;2023-04-21T04:38:27;7.73;;;6.80;;
8482;SDS011;4278;42.668;23.312;2023-04-21T04:40:58;11.20;;;7.70;;
8482;SDS011;4278;42.668;23.312;2023-04-21T04:43:26;9.33;;;7.07;;
8482;SDS011;4278;42.668;23.312;2023-04-21T04:45:53;11.90;;;7.30;;
8482;SDS011;4278;42.668;23.312;2023-04-21T04:48:20;8.30;;;6.97;;
8482;SDS011;4278;42.668;23.312;2023-04-21T04:50:48;10.97;;;8.20;;
8482;SDS011;4278;42.668;23.312;2023-04-21T04:53:15;8.20;;;6.77;;
8482;SDS011;4278;42.668;23.312;2023-04-21T04:55:42;11.00;;;7.47;;
8482;SDS011;4278;42.668;23.312;2023-04-21T04:58:08;8.40;;;6.67;;
8482;SDS011;4278;42.668;23.312;2023-04-21T05:00:35;9.57;;;7.23;;
8482;SDS011;4278;42.668;23.312;2023-04-21T05:03:02;10.13;;;6.80;;
8482;SDS011;4278;42.668;23.312;2023-04-21T05:05:29;11.87;;;7.13;;
8482;SDS011;4278;42.668;23.312;2023-04-21T05:07:58;9.10;;;6.73;;
8482;SDS011;4278;42.668;23.312;2023-04-21T05:10:24;9.30;;;7.03;;
8482;SDS011;4278;42.668;23.312;2023-04-21T05:12:51;8.83;;;6.37;;
8482;SDS011;4278;42.668;23.312;2023-04-21T05:15:18;10.83;;;7.77;;
8482;SDS011;4278;42.668;23.312;2023-04-21T05:17:46;11.10;;;7.43;;
8482;SDS011;4278;42.668;23.312;2023-04-21T05:20:13;7.87;;;6.40;;
8482;SDS011;4278;42.668;23.312;2023-04-21T05:22:40;12.07;;;7.60;;
8482;SDS011;4278;42.668;23.312;2023-04-21T05:25:08;10.97;;;7.67;;
8482;SDS011;4278;42.668;23.312;2023-04-21T05:27:36;9.53;;;7.00;;
8482;SDS011;4278;42.668;23.312;2023-04-21T05:30:03;11.23;;;6.97;;
8482;SDS011;4278;42.668;23.312;2023-04-21T05:32:30;8.97;;;6.47;;
8482;SDS011;4278;42.668;23.312;2023-04-21T05:34:57;10.43;;;6.97;;
8482;SDS011;4278;42.668;23.312;2023-04-21T05:37:24;9.20;;;7.80;;
8482;SDS011;4278;42.668;23.312;2023-04-21T05:39:51;10.50;;;8.00;;
8482;SDS011;4278;42.668;23.312;2023-04-21T05:42:19;10.03;;;6.87;;
8482;SDS011;4278;42.668;23.312;2023-04-21T05:44:47;9.20;;;6.47;;
8482;SDS011;4278;42.668;23.312;2023-04-21T05:47:13;12.03;;;7.77;;
8482;SDS011;4278;42.668;23.312;2023-04-21T05:49:40;8.80;;;6.53;;
8482;SDS011;4278;42.668;23.312;2023-04-21T05:52:13;11.10;;;6.73;;
8482;SDS011;4278;42.668;23.312;2023-04-21T05:54:40;16.07;;;7.30;;
8482;SDS011;4278;42.668;23.312;2023-04-21T05:57:07;10.73;;;7.47;;
8482;SDS011;4278;42.668;23.312;2023-04-21T05:59:35;11.67;;;7.47;;
8482;SDS011;4278;42.668;23.312;2023-04-21T06:02:02;8.33;;;7.27;;
8482;SDS011;4278;42.668;23.312;2023-04-21T06:04:29;10.50;;;7.77;;
8482;SDS011;4278;42.668;23.312;2023-04-21T06:06:56;9.17;;;7.23;;
8482;SDS011;4278;42.668;23.312;2023-04-21T06:09:23;10.50;;;6.63;;
8482;SDS011;4278;42.668;23.312;2023-04-21T06:11:49;8.40;;;6.97;;
8482;SDS011;4278;42.668;23.312;2023-04-21T06:14:16;10.97;;;6.73;;
8482;SDS011;4278;42.668;23.312;2023-04-21T06:16:45;7.73;;;6.23;;
8482;SDS011;4278;42.668;23.312;2023-04-21T06:19:11;9.80;;;6.43;;
8482;SDS011;4278;42.668;23.312;2023-04-21T06:21:38;9.90;;;6.97;;
8482;SDS011;4278;42.668;23.312;2023-04-21T06:24:05;9.23;;;6.73;;
8482;SDS011;4278;42.668;23.312;2023-04-21T06:26:33;8.70;;;6.57;;
8482;SDS011;4278;42.668;23.312;2023-04-21T06:29:00;9.03;;;6.10;;
8482;SDS011;4278;42.668;23.312;2023-04-21T06:31:26;7.83;;;6.87;;
8482;SDS011;4278;42.668;23.312;2023-04-21T06:33:55;10.30;;;6.60;;
8482;SDS011;4278;42.668;23.312;2023-04-21T06:36:22;8.83;;;6.27;;
8482;SDS011;4278;42.668;23.312;2023-04-21T06:38:48;7.63;;;6.47;;
8482;SDS011;4278;42.668;23.312;2023-04-21T06:41:16;11.03;;;6.43;;
8482;SDS011;4278;42.668;23.312;2023-04-21T06:43:46;7.87;;;6.47;;
8482;SDS011;4278;42.668;23.312;2023-04-21T06:46:12;11.55;;;7.03;;
8482;SDS011;4278;42.668;23.312;2023-04-21T06:48:39;8.43;;;6.70;;
8482;SDS011;4278;42.668;23.312;2023-04-21T06:51:07;8.40;;;6.15;;
8482;SDS011;4278;42.668;23.312;2023-04-21T06:53:34;8.85;;;5.78;;
8482;SDS011;4278;42.668;23.312;2023-04-21T06:56:02;12.15;;;6.38;;
8482;SDS011;4278;42.668;23.312;2023-04-21T06:58:29;10.60;;;5.68;;
8482;SDS011;4278;42.668;23.312;2023-04-21T07:00:55;10.10;;;5.97;;
8482;SDS011;4278;42.668;23.312;2023-04-21T07:03:22;8.00;;;5.53;;
8482;SDS011;4278;42.668;23.312;2023-04-21T07:05:49;9.05;;;6.00;;
8482;SDS011;4278;42.668;23.312;2023-04-21T07:08:17;9.00;;;6.10;;
8482;SDS011;4278;42.668;23.312;2023-04-21T07:10:44;8.38;;;6.15;;
8482;SDS011;4278;42.668;23.312;2023-04-21T07:13:11;8.35;;;5.85;;
8482;SDS011;4278;42.668;23.312;2023-04-21T07:15:37;9.35;;;5.45;;
8482;SDS011;4278;42.668;23.312;2023-04-21T07:18:04;9.63;;;5.93;;
8482;SDS011;4278;42.668;23.312;2023-04-21T07:20:31;6.78;;;5.40;;
8482;SDS011;4278;42.668;23.312;2023-04-21T07:22:58;8.35;;;6.10;;
8482;SDS011;4278;42.668;23.312;2023-04-21T07:25:26;7.45;;;5.55;;
8482;SDS011;4278;42.668;23.312;2023-04-21T07:27:53;6.38;;;5.53;;
8482;SDS011;4278;42.668;23.312;2023-04-21T07:30:20;6.38;;;5.45;;
8482;SDS011;4278;42.668;23.312;2023-04-21T07:32:46;7.53;;;5.38;;
8482;SDS011;4278;42.668;23.312;2023-04-21T07:35:13;9.10;;;6.38;;
8482;SDS011;4278;42.668;23.312;2023-04-21T07:37:40;8.20;;;5.53;;
8482;SDS011;4278;42.668;23.312;2023-04-21T07:40:07;7.40;;;5.55;;
8482;SDS011;4278;42.668;23.312;2023-04-21T07:42:36;6.15;;;5.55;;
8482;SDS011;4278;42.668;23.312;2023-04-21T07:45:03;7.50;;;5.45;;
8482;SDS011;4278;42.668;23.312;2023-04-21T07:47:30;7.10;;;5.28;;
8482;SDS011;4278;42.668;23.312;2023-04-21T07:49:57;6.13;;;5.20;;
8482;SDS011;4278;42.668;23.312;2023-04-21T07:52:24;8.70;;;4.72;;
8482;SDS011;4278;42.668;23.312;2023-04-21T07:54:51;9.70;;;5.50;;
8482;SDS011;4278;42.668;23.312;2023-04-21T07:57:18;6.75;;;5.38;;
8482;SDS011;4278;42.668;23.312;2023-04-21T07:59:46;8.45;;;5.80;;
8482;SDS011;4278;42.668;23.312;2023-04-21T08:02:13;7.60;;;5.45;;
8482;SDS011;4278;42.668;23.312;2023-04-21T08:04:40;8.35;;;5.10;;
8482;SDS011;4278;42.668;23.312;2023-04-21T08:07:06;8.40;;;5.72;;
8482;SDS011;4278;42.668;23.312;2023-04-21T08:09:34;6.22;;;4.85;;
8482;SDS011;4278;42.668;23.312;2023-04-21T08:12:01;10.07;;;6.47;;
8482;SDS011;4278;42.668;23.312;2023-04-21T08:14:28;8.80;;;5.45;;
8482;SDS011;4278;42.668;23.312;2023-04-21T08:16:57;8.00;;;5.80;;
8482;SDS011;4278;42.668;23.312;2023-04-21T08:19:25;11.38;;;5.10;;
8482;SDS011;4278;42.668;23.312;2023-04-21T08:21:51;5.95;;;4.65;;
8482;SDS011;4278;42.668;23.312;2023-04-21T08:24:18;7.82;;;5.55;;
8482;SDS011;4278;42.668;23.312;2023-04-21T08:26:45;5.00;;;4.40;;
8482;SDS011;4278;42.668;23.312;2023-04-21T08:29:12;7.13;;;5.20;;
8482;SDS011;4278;42.668;23.312;2023-04-21T08:31:39;6.95;;;4.80;;
8482;SDS011;4278;42.668;23.312;2023-04-21T08:34:07;7.10;;;4.72;;
8482;SDS011;4278;42.668;23.312;2023-04-21T08:36:34;6.28;;;4.85;;
8482;SDS011;4278;42.668;23.312;2023-04-21T08:39:01;5.90;;;4.50;;
8482;SDS011;4278;42.668;23.312;2023-04-21T08:41:28;5.85;;;4.72;;
8482;SDS011;4278;42.668;23.312;2023-04-21T08:43:55;8.35;;;5.80;;
8482;SDS011;4278;42.668;23.312;2023-04-21T08:46:21;9.40;;;5.10;;
8482;SDS011;4278;42.668;23.312;2023-04-21T08:48:49;7.93;;;5.20;;
8482;SDS011;4278;42.668;23.312;2023-04-21T08:51:20;8.68;;;6.43;;
8482;SDS011;4278;42.668;23.312;2023-04-21T08:53:47;8.65;;;5.82;;
8482;SDS011;4278;42.668;23.312;2023-04-21T08:56:14;17.33;;;11.20;;
8482;SDS011;4278;42.668;23.312;2023-04-21T08:58:41;10.85;;;5.78;;
8482;SDS011;4278;42.668;23.312;2023-04-21T09:01:08;6.57;;;5.10;;
8482;SDS011;4278;42.668;23.312;2023-04-21T09:03:36;5.75;;;4.55;;
8482;SDS011;4278;42.668;23.312;2023-04-21T09:06:03;7.85;;;5.00;;
8482;SDS011;4278;42.668;23.312;2023-04-21T09:08:33;5.00;;;4.47;;
8482;SDS011;4278;42.668;23.312;2023-04-21T09:11:02;6.03;;;4.63;;
8482;SDS011;4278;42.668;23.312;2023-04-21T09:13:30;6.57;;;4.65;;
8482;SDS011;4278;42.668;23.312;2023-04-21T09:15:57;9.13;;;4.60;;
8482;SDS011;4278;42.668;23.312;2023-04-21T09:18:26;7.53;;;4.60;;
8482;SDS011;4278;42.668;23.312;2023-04-21T09:21:05;5.95;;;4.07;;
8482;SDS011;4278;42.668;23.312;2023-04-21T09:23:44;6.65;;;4.68;;
8482;SDS011;4278;42.668;23.312;2023-04-21T09:26:12;5.78;;;4.35;;
8482;SDS011;4278;42.668;23.312;2023-04-21T09:28:41;6.25;;;3.85;;
8482;SDS011;4278;42.668;23.312;2023-04-21T09:31:12;5.50;;;3.88;;
8482;SDS011;4278;42.668;23.312;2023-04-21T09:33:43;6.90;;;3.70;;
8482;SDS011;4278;42.668;23.312;2023-04-21T09:36:16;4.45;;;3.47;;
8482;SDS011;4278;42.668;23.312;2023-04-21T09:38:47;5.90;;;3.80;;
8482;SDS011;4278;42.668;23.312;2023-04-21T09:41:16;9.82;;;4.63;;
8482;SDS011;4278;42.668;23.312;2023-04-21T09:43:43;5.03;;;3.95;;
8482;SDS011;4278;42.668;23.312;2023-04-21T09:46:10;6.25;;;3.85;;
8482;SDS011;4278;42.668;23.312;2023-04-21T09:48:37;5.57;;;3.92;;
8482;SDS011;4278;42.668;23.312;2023-04-21T09:51:09;7.57;;;4.22;;
8482;SDS011;4278;42.668;23.312;2023-04-21T09:53:38;5.68;;;4.45;;
8482;SDS011;4278;42.668;23.312;2023-04-21T09:56:07;6.00;;;3.83;;
8482;SDS011;4278;42.668;23.312;2023-04-21T09:58:39;5.93;;;4.20;;
8482;SDS011;4278;42.668;23.312;2023-04-21T10:01:09;8.35;;;4.20;;
8482;SDS011;4278;42.668;23.312;2023-04-21T10:03:37;6.32;;;5.70;;
8482;SDS011;4278;42.668;23.312;2023-04-21T10:06:05;8.23;;;4.97;;
8482;SDS011;4278;42.668;23.312;2023-04-21T10:08:33;7.10;;;5.18;;
8482;SDS011;4278;42.668;23.312;2023-04-21T10:11:00;5.82;;;4.50;;
8482;SDS011;4278;42.668;23.312;2023-04-21T10:13:30;9.45;;;5.05;;
8482;SDS011;4278;42.668;23.312;2023-04-21T10:16:00;5.38;;;4.03;;
8482;SDS011;4278;42.668;23.312;2023-04-21T10:18:29;5.03;;;4.22;;
8482;SDS011;4278;42.668;23.312;2023-04-21T10:20:56;7.45;;;4.40;;
8482;SDS011;4278;42.668;23.312;2023-04-21T10:23:27;7.32;;;4.72;;
8482;SDS011;4278;42.668;23.312;2023-04-21T10:26:01;6.55;;;5.05;;
8482;SDS011;4278;42.668;23.312;2023-04-21T10:28:48;8.20;;;5.82;;
8482;SDS011;4278;42.668;23.312;2023-04-21T10:31:20;6.82;;;5.35;;
8482;SDS011;4278;42.668;23.312;2023-04-21T10:34:16;9.10;;;5.68;;
8482;SDS011;4278;42.668;23.312;2023-04-21T10:39:45;15.18;;;7.20;;
8482;SDS011;4278;42.668;23.312;2023-04-21T10:42:22;11.73;;;6.10;;
8482;SDS011;4278;42.668;23.312;2023-04-21T10:45:01;10.90;;;5.60;;
8482;SDS011;4278;42.668;23.312;2023-04-21T10:47:34;7.85;;;5.90;;
8482;SDS011;4278;42.668;23.312;2023-04-21T10:50:09;6.35;;;4.25;;
8482;SDS011;4278;42.668;23.312;2023-04-21T10:52:38;10.77;;;7.03;;
8482;SDS011;4278;42.668;23.312;2023-04-21T10:55:05;6.22;;;4.50;;
8482;SDS011;4278;42.668;23.312;2023-04-21T10:57:36;7.20;;;4.63;;
8482;SDS011;4278;42.668;23.312;2023-04-21T11:00:05;5.85;;;4.82;;
8482;SDS011;4278;42.668;23.312;2023-04-21T11:02:34;10.30;;;5.05;;
8482;SDS011;4278;42.668;23.312;2023-04-21T11:05:01;6.80;;;4.18;;
8482;SDS011;4278;42.668;23.312;2023-04-21T11:07:28;6.50;;;4.70;;
8482;SDS011;4278;42.668;23.312;2023-04-21T11:09:56;6.70;;;4.35;;
8482;SDS011;4278;42.668;23.312;2023-04-21T11:12:25;5.00;;;3.90;;
8482;SDS011;4278;42.668;23.312;2023-04-21T11:14:54;7.10;;;3.75;;
8482;SDS011;4278;42.668;23.312;2023-04-21T11:17:22;8.02;;;3.55;;
8482;SDS011;4278;42.668;23.312;2023-04-21T11:19:51;7.20;;;4.70;;
8482;SDS011;4278;42.668;23.312;2023-04-21T11:22:19;12.77;;;9.35;;
8482;SDS011;4278;42.668;23.312;2023-04-21T11:24:48;6.55;;;4.20;;
8482;SDS011;4278;42.668;23.312;2023-04-21T11:27:16;5.80;;;3.88;;
8482;SDS011;4278;42.668;23.312;2023-04-21T11:29:47;5.20;;;4.35;;
8482;SDS011;4278;42.668;23.312;2023-04-21T11:32:14;9.43;;;4.60;;
8482;SDS011;4278;42.668;23.312;2023-04-21T11:34:43;5.43;;;3.97;;
8482;SDS011;4278;42.668;23.312;2023-04-21T11:37:13;6.68;;;3.90;;
8482;SDS011;4278;42.668;23.312;2023-04-21T11:39:42;6.85;;;5.47;;
8482;SDS011;4278;42.668;23.312;2023-04-21T11:42:09;13.73;;;9.00;;
8482;SDS011;4278;42.668;23.312;2023-04-21T11:44:37;8.40;;;5.53;;
8482;SDS011;4278;42.668;23.312;2023-04-21T11:47:12;5.78;;;4.38;;
8482;SDS011;4278;42.668;23.312;2023-04-21T11:49:45;6.70;;;4.28;;
8482;SDS011;4278;42.668;23.312;2023-04-21T11:52:19;5.50;;;3.22;;
8482;SDS011;4278;42.668;23.312;2023-04-21T11:54:47;5.68;;;3.28;;
8482;SDS011;4278;42.668;23.312;2023-04-21T11:57:16;3.90;;;3.33;;
8482;SDS011;4278;42.668;23.312;2023-04-21T11:59:44;7.50;;;5.80;;
8482;SDS011;4278;42.668;23.312;2023-04-21T12:02:12;12.80;;;7.22;;
8482;SDS011;4278;42.668;23.312;2023-04-21T12:04:56;10.95;;;6.50;;
8482;SDS011;4278;42.668;23.312;2023-04-21T12:07:24;5.10;;;3.40;;
8482;SDS011;4278;42.668;23.312;2023-04-21T12:09:51;4.55;;;3.20;;
8482;SDS011;4278;42.668;23.312;2023-04-21T12:12:18;3.20;;;2.90;;
8482;SDS011;4278;42.668;23.312;2023-04-21T12:14:48;3.47;;;2.20;;
8482;SDS011;4278;42.668;23.312;2023-04-21T12:17:15;4.75;;;2.80;;
8482;SDS011;4278;42.668;23.312;2023-04-21T12:19:45;3.20;;;2.70;;
8482;SDS011;4278;42.668;23.312;2023-04-21T12:22:20;5.47;;;2.83;;
8482;SDS011;4278;42.668;23.312;2023-04-21T12:24:47;3.85;;;3.05;;
8482;SDS011;4278;42.668;23.312;2023-04-21T12:27:14;4.57;;;3.08;;
8482;SDS011;4278;42.668;23.312;2023-04-21T12:29:43;6.22;;;3.53;;
8482;SDS011;4278;42.668;23.312;2023-04-21T12:32:09;9.10;;;4.00;;
8482;SDS011;4278;42.668;23.312;2023-04-21T12:34:39;8.05;;;4.15;;
8482;SDS011;4278;42.668;23.312;2023-04-21T12:37:07;5.65;;;4.18;;
8482;SDS011;4278;42.668;23.312;2023-04-21T12:39:36;4.47;;;3.65;;
8482;SDS011;4278;42.668;23.312;2023-04-21T12:42:04;6.40;;;4.30;;
8482;SDS011;4278;42.668;23.312;2023-04-21T12:44:34;9.23;;;4.82;;
8482;SDS011;4278;42.668;23.312;2023-04-21T12:47:01;5.85;;;4.50;;
8482;SDS011;4278;42.668;23.312;2023-04-21T12:49:28;19.20;;;5.15;;
8482;SDS011;4278;42.668;23.312;2023-04-21T12:51:55;9.65;;;5.55;;
8482;SDS011;4278;42.668;23.312;2023-04-21T12:54:22;6.68;;;4.85;;
8482;SDS011;4278;42.668;23.312;2023-04-21T12:56:50;8.18;;;4.93;;
8482;SDS011;4278;42.668;23.312;2023-04-21T12:59:17;6.75;;;4.70;;
8482;SDS011;4278;42.668;23.312;2023-04-21T13:01:44;6.32;;;4.15;;
8482;SDS011;4278;42.668;23.312;2023-04-21T13:04:10;5.68;;;4.15;;
8482;SDS011;4278;42.668;23.312;2023-04-21T13:06:37;4.45;;;3.83;;
8482;SDS011;4278;42.668;23.312;2023-04-21T13:09:04;5.80;;;4.13;;
8482;SDS011;4278;42.668;23.312;2023-04-21T13:11:31;7.43;;;4.28;;
8482;SDS011;4278;42.668;23.312;2023-04-21T13:14:00;6.18;;;4.10;;
8482;SDS011;4278;42.668;23.312;2023-04-21T13:16:28;4.43;;;3.92;;
8482;SDS011;4278;42.668;23.312;2023-04-21T13:18:55;11.25;;;4.70;;
8482;SDS011;4278;42.668;23.312;2023-04-21T13:21:22;9.88;;;6.72;;
8482;SDS011;4278;42.668;23.312;2023-04-21T13:23:48;10.30;;;5.43;;
8482;SDS011;4278;42.668;23.312;2023-04-21T13:26:16;11.23;;;6.03;;
8482;SDS011;4278;42.668;23.312;2023-04-21T13:28:43;10.38;;;5.68;;
8482;SDS011;4278;42.668;23.312;2023-04-21T13:31:11;10.77;;;8.32;;
8482;SDS011;4278;42.668;23.312;2023-04-21T13:33:40;10.25;;;5.93;;
8482;SDS011;4278;42.668;23.312;2023-04-21T13:36:07;9.85;;;3.90;;
8482;SDS011;4278;42.668;23.312;2023-04-21T13:38:35;6.55;;;4.63;;
8482;SDS011;4278;42.668;23.312;2023-04-21T13:41:03;10.05;;;4.47;;
8482;SDS011;4278;42.668;23.312;2023-04-21T13:43:30;8.13;;;4.53;;
8482;SDS011;4278;42.668;23.312;2023-04-21T13:45:57;6.68;;;4.00;;
8482;SDS011;4278;42.668;23.312;2023-04-21T13:48:25;7.45;;;4.55;;
8482;SDS011;4278;42.668;23.312;2023-04-21T13:50:53;7.20;;;4.88;;
8482;SDS011;4278;42.668;23.312;2023-04-21T13:53:20;9.93;;;7.10;;
8482;SDS011;4278;42.668;23.312;2023-04-21T13:55:47;8.20;;;4.88;;
8482;SDS011;4278;42.668;23.312;2023-04-21T13:58:14;15.02;;;9.63;;
8482;SDS011;4278;42.668;23.312;2023-04-21T14:00:41;7.13;;;4.47;;
8482;SDS011;4278;42.668;23.312;2023-04-21T14:03:08;6.72;;;5.28;;
8482;SDS011;4278;42.668;23.312;2023-04-21T14:05:37;7.93;;;4.75;;
8482;SDS011;4278;42.668;23.312;2023-04-21T14:08:04;8.55;;;4.63;;
8482;SDS011;4278;42.668;23.312;2023-04-21T14:10:31;8.82;;;5.32;;
8482;SDS011;4278;42.668;23.312;2023-04-21T14:12:58;8.18;;;5.05;;
8482;SDS011;4278;42.668;23.312;2023-04-21T14:15:25;6.65;;;4.47;;
8482;SDS011;4278;42.668;23.312;2023-04-21T14:17:52;6.95;;;4.70;;
8482;SDS011;4278;42.668;23.312;2023-04-21T14:20:20;11.38;;;5.10;;
8482;SDS011;4278;42.668;23.312;2023-04-21T14:22:49;9.57;;;5.30;;
8482;SDS011;4278;42.668;23.312;2023-04-21T14:25:16;10.38;;;5.10;;
8482;SDS011;4278;42.668;23.312;2023-04-21T14:27:45;9.10;;;4.70;;
8482;SDS011;4278;42.668;23.312;2023-04-21T14:30:13;6.05;;;4.13;;
8482;SDS011;4278;42.668;23.312;2023-04-21T14:32:40;8.85;;;4.78;;
8482;SDS011;4278;42.668;23.312;2023-04-21T14:35:09;7.53;;;4.53;;
8482;SDS011;4278;42.668;23.312;2023-04-21T14:37:36;6.68;;;4.75;;
8482;SDS011;4278;42.668;23.312;2023-04-21T14:40:05;7.65;;;5.05;;
8482;SDS011;4278;42.668;23.312;2023-04-21T14:42:33;8.63;;;4.43;;
8482;SDS011;4278;42.668;23.312;2023-04-21T14:45:00;8.00;;;5.55;;
8482;SDS011;4278;42.668;23.312;2023-04-21T14:47:26;12.18;;;5.90;;
8482;SDS011;4278;42.668;23.312;2023-04-21T14:49:53;8.77;;;5.97;;
8482;SDS011;4278;42.668;23.312;2023-04-21T14:52:20;8.30;;;5.43;;
8482;SDS011;4278;42.668;23.312;2023-04-21T14:54:48;11.20;;;6.78;;
8482;SDS011;4278;42.668;23.312;2023-04-21T14:57:16;7.50;;;5.13;;
8482;SDS011;4278;42.668;23.312;2023-04-21T14:59:45;7.70;;;4.60;;
8482;SDS011;4278;42.668;23.312;2023-04-21T15:02:12;12.05;;;5.15;;
8482;SDS011;4278;42.668;23.312;2023-04-21T15:04:39;6.78;;;5.30;;
8482;SDS011;4278;42.668;23.312;2023-04-21T15:07:06;10.30;;;4.93;;
8482;SDS011;4278;42.668;23.312;2023-04-21T15:09:33;7.85;;;4.68;;
8482;SDS011;4278;42.668;23.312;2023-04-21T15:12:01;6.57;;;4.93;;
8482;SDS011;4278;42.668;23.312;2023-04-21T15:14:29;12.88;;;10.77;;
8482;SDS011;4278;42.668;23.312;2023-04-21T15:16:56;10.27;;;6.07;;
8482;SDS011;4278;42.668;23.312;2023-04-21T15:19:22;8.88;;;6.13;;
8482;SDS011;4278;42.668;23.312;2023-04-21T15:21:49;6.32;;;4.70;;
8482;SDS011;4278;42.668;23.312;2023-04-21T15:24:16;12.65;;;5.32;;
8482;SDS011;4278;42.668;23.312;2023-04-21T15:26:43;7.63;;;5.82;;
8482;SDS011;4278;42.668;23.312;2023-04-21T15:29:10;5.82;;;4.90;;
8482;SDS011;4278;42.668;23.312;2023-04-21T15:31:38;8.23;;;4.80;;
8482;SDS011;4278;42.668;23.312;2023-04-21T15:34:05;8.70;;;4.78;;
8482;SDS011;4278;42.668;23.312;2023-04-21T15:36:33;6.15;;;4.30;;
8482;SDS011;4278;42.668;23.312;2023-04-21T15:39:00;8.55;;;5.07;;
8482;SDS011;4278;42.668;23.312;2023-04-21T15:41:27;5.47;;;3.75;;
8482;SDS011;4278;42.668;23.312;2023-04-21T15:43:55;6.28;;;4.97;;
8482;SDS011;4278;42.668;23.312;2023-04-21T15:46:22;4.38;;;3.83;;
8482;SDS011;4278;42.668;23.312;2023-04-21T15:48:50;4.45;;;3.83;;
8482;SDS011;4278;42.668;23.312;2023-04-21T15:51:17;6.07;;;4.75;;
8482;SDS011;4278;42.668;23.312;2023-04-21T15:53:44;7.20;;;4.65;;
8482;SDS011;4278;42.668;23.312;2023-04-21T15:56:12;9.15;;;4.70;;
8482;SDS011;4278;42.668;23.312;2023-04-21T15:58:39;4.97;;;4.00;;
8482;SDS011;4278;42.668;23.312;2023-04-21T16:01:06;8.52;;;4.28;;
8482;SDS011;4278;42.668;23.312;2023-04-21T16:03:33;6.68;;;4.20;;
8482;SDS011;4278;42.668;23.312;2023-04-21T16:06:01;7.13;;;4.70;;
8482;SDS011;4278;42.668;23.312;2023-04-21T16:08:32;5.30;;;4.55;;
8482;SDS011;4278;42.668;23.312;2023-04-21T16:10:59;6.57;;;4.60;;
8482;SDS011;4278;42.668;23.312;2023-04-21T16:13:26;7.55;;;4.80;;
8482;SDS011;4278;42.668;23.312;2023-04-21T16:15:53;7.30;;;3.95;;
8482;SDS011;4278;42.668;23.312;2023-04-21T16:18:21;5.28;;;4.32;;
8482;SDS011;4278;42.668;23.312;2023-04-21T16:20:51;13.20;;;5.70;;
8482;SDS011;4278;42.668;23.312;2023-04-21T16:23:19;6.63;;;3.77;;
8482;SDS011;4278;42.668;23.312;2023-04-21T16:25:48;5.63;;;4.20;;
8482;SDS011;4278;42.668;23.312;2023-04-21T16:28:15;9.83;;;4.50;;
8482;SDS011;4278;42.668;23.312;2023-04-21T16:30:42;6.43;;;4.03;;
8482;SDS011;4278;42.668;23.312;2023-04-21T16:33:09;9.07;;;4.17;;
8482;SDS011;4278;42.668;23.312;2023-04-21T16:35:37;7.40;;;4.37;;
8482;SDS011;4278;42.668;23.312;2023-04-21T16:38:04;6.20;;;4.00;;
8482;SDS011;4278;42.668;23.312;2023-04-21T16:40:32;9.30;;;4.33;;
8482;SDS011;4278;42.668;23.312;2023-04-21T16:42:59;3.90;;;3.50;;
8482;SDS011;4278;42.668;23.312;2023-04-21T16:45:26;7.87;;;4.03;;
8482;SDS011;4278;42.668;23.312;2023-04-21T16:47:53;7.23;;;4.73;;
8482;SDS011;4278;42.668;23.312;2023-04-21T16:50:20;7.27;;;4.43;;
8482;SDS011;4278;42.668;23.312;2023-04-21T16:52:46;6.80;;;4.53;;
8482;SDS011;4278;42.668;23.312;2023-04-21T16:55:13;6.93;;;4.80;;
8482;SDS011;4278;42.668;23.312;2023-04-21T16:57:42;6.67;;;4.43;;
8482;SDS011;4278;42.668;23.312;2023-04-21T17:00:09;6.27;;;4.30;;
8482;SDS011;4278;42.668;23.312;2023-04-21T17:02:37;7.83;;;4.03;;
8482;SDS011;4278;42.668;23.312;2023-04-21T17:05:04;8.63;;;4.00;;
8482;SDS011;4278;42.668;23.312;2023-04-21T17:07:31;6.40;;;4.13;;
8482;SDS011;4278;42.668;23.312;2023-04-21T17:09:59;7.57;;;3.93;;
8482;SDS011;4278;42.668;23.312;2023-04-21T17:12:26;5.60;;;3.63;;
8482;SDS011;4278;42.668;23.312;2023-04-21T17:14:54;5.57;;;3.73;;
8482;SDS011;4278;42.668;23.312;2023-04-21T17:17:21;4.90;;;3.97;;
8482;SDS011;4278;42.668;23.312;2023-04-21T17:19:48;7.90;;;3.90;;
8482;SDS011;4278;42.668;23.312;2023-04-21T17:22:15;5.17;;;3.87;;
8482;SDS011;4278;42.668;23.312;2023-04-21T17:24:41;4.80;;;3.70;;
8482;SDS011;4278;42.668;23.312;2023-04-21T17:27:08;5.47;;;3.80;;
8482;SDS011;4278;42.668;23.312;2023-04-21T17:29:35;6.30;;;4.20;;
8482;SDS011;4278;42.668;23.312;2023-04-21T17:32:03;7.43;;;3.97;;
8482;SDS011;4278;42.668;23.312;2023-04-21T17:34:30;6.20;;;4.40;;
8482;SDS011;4278;42.668;23.312;2023-04-21T17:36:57;10.07;;;4.60;;
8482;SDS011;4278;42.668;23.312;2023-04-21T17:39:24;6.40;;;4.60;;
8482;SDS011;4278;42.668;23.312;2023-04-21T17:41:51;8.53;;;4.70;;
8482;SDS011;4278;42.668;23.312;2023-04-21T17:44:18;8.53;;;5.30;;
8482;SDS011;4278;42.668;23.312;2023-04-21T17:46:45;5.80;;;3.80;;
8482;SDS011;4278;42.668;23.312;2023-04-21T17:49:13;7.10;;;5.20;;
8482;SDS011;4278;42.668;23.312;2023-04-21T17:51:41;11.27;;;4.80;;
8482;SDS011;4278;42.668;23.312;2023-04-21T17:54:08;6.00;;;4.60;;
8482;SDS011;4278;42.668;23.312;2023-04-21T17:56:36;7.73;;;4.07;;
8482;SDS011;4278;42.668;23.312;2023-04-21T17:59:03;10.37;;;4.80;;
8482;SDS011;4278;42.668;23.312;2023-04-21T18:01:30;7.07;;;4.20;;
8482;SDS011;4278;42.668;23.312;2023-04-21T18:03:57;6.57;;;4.67;;
8482;SDS011;4278;42.668;23.312;2023-04-21T18:06:25;4.97;;;4.13;;
8482;SDS011;4278;42.668;23.312;2023-04-21T18:08:52;7.27;;;4.80;;
8482;SDS011;4278;42.668;23.312;2023-04-21T18:11:19;10.60;;;5.00;;
8482;SDS011;4278;42.668;23.312;2023-04-21T18:13:46;5.87;;;4.57;;
8482;SDS011;4278;42.668;23.312;2023-04-21T18:16:13;8.50;;;4.70;;
8482;SDS011;4278;42.668;23.312;2023-04-21T18:18:40;8.60;;;4.23;;
8482;SDS011;4278;42.668;23.312;2023-04-21T18:21:07;7.67;;;4.30;;
8482;SDS011;4278;42.668;23.312;2023-04-21T18:23:35;5.07;;;4.57;;
8482;SDS011;4278;42.668;23.312;2023-04-21T18:26:02;8.47;;;4.57;;
8482;SDS011;4278;42.668;23.312;2023-04-21T18:28:29;6.67;;;5.00;;
8482;SDS011;4278;42.668;23.312;2023-04-21T18:30:56;5.53;;;4.37;;
8482;SDS011;4278;42.668;23.312;2023-04-21T18:33:23;4.53;;;3.80;;
8482;SDS011;4278;42.668;23.312;2023-04-21T18:35:49;9.27;;;4.27;;
8482;SDS011;4278;42.668;23.312;2023-04-21T18:38:16;8.50;;;3.97;;
8482;SDS011;4278;42.668;23.312;2023-04-21T18:40:45;7.43;;;4.00;;
8482;SDS011;4278;42.668;23.312;2023-04-21T18:43:11;6.70;;;4.20;;
8482;SDS011;4278;42.668;23.312;2023-04-21T18:45:39;10.00;;;4.43;;
8482;SDS011;4278;42.668;23.312;2023-04-21T18:48:06;4.90;;;4.37;;
8482;SDS011;4278;42.668;23.312;2023-04-21T18:50:33;10.33;;;4.90;;
8482;SDS011;4278;42.668;23.312;2023-04-21T18:53:03;10.40;;;5.07;;
8482;SDS011;4278;42.668;23.312;2023-04-21T18:55:31;12.57;;;6.30;;
8482;SDS011;4278;42.668;23.312;2023-04-21T18:58:00;12.83;;;6.73;;
8482;SDS011;4278;42.668;23.312;2023-04-21T19:00:27;10.77;;;6.40;;
8482;SDS011;4278;42.668;23.312;2023-04-21T19:02:53;12.63;;;6.57;;
8482;SDS011;4278;42.668;23.312;2023-04-21T19:05:20;11.00;;;6.97;;
8482;SDS011;4278;42.668;23.312;2023-04-21T19:07:47;12.00;;;6.17;;
8482;SDS011;4278;42.668;23.312;2023-04-21T19:10:14;11.37;;;6.23;;
8482;SDS011;4278;42.668;23.312;2023-04-21T19:12:41;13.70;;;6.47;;
8482;SDS011;4278;42.668;23.312;2023-04-21T19:15:09;11.77;;;6.73;;
8482;SDS011;4278;42.668;23.312;2023-04-21T19:17:37;10.30;;;6.50;;
8482;SDS011;4278;42.668;23.312;2023-04-21T19:20:05;10.80;;;5.80;;